Terminal Aerodrome Forecast
Issued by NWS

Home | Current Version | Previous Version | Text Only | Print | Product List | Glossary On
Versions: 1 2 3 4 5 6 7 8 9 10 11 12
007
FTUS45 KABQ 272333
TAFLVS
TAF
KLVS 272333Z 2800/2824 21020G30KT P6SM SCT080 BKN120
     FM280200 19012KT P6SM BKN080 BKN120
     FM280600 16008KT P6SM VCSH BKN050 OVC080
     FM281500 16015KT P6SM VCSH BKN050 BKN070
      TEMPO 2818/2821 20015KT
     FM282100 28015G22KT P6SM VCSH BKN050 BKN070=

USA.gov is the U.S. government's official web portal to all federal, state and local government web resources and services.